Time;durP1;ratioP1;P1;durP2;ratioP2;P2;SDS_P1;SDS_P2;PMS_P1;PMS_P2;Temp;Humidity;BMP_temperature;BMP_pressure;BME280_temperature;BME280_humidity;BME280_pressure;Samples;Min_cycle;Max_cycle;Signal;HPM_P1;HPM_P2
2023/01/30 00:02:43;;;;;;;1999.90;999.90;;;;;;;4.09;100.00;101687.69;10460482;28;20052;-62
2023/01/30 00:07:46;;;;;;;1999.90;999.90;;;;;;;4.25;100.00;101696.09;10460969;28;20103;-62
2023/01/30 00:12:49;;;;;;;1999.90;999.90;;;;;;;4.25;100.00;101675.34;10459205;28;20053;-62
2023/01/30 00:17:51;;;;;;;1999.90;999.90;;;;;;;4.29;100.00;101676.16;10457451;28;20111;-62
2023/01/30 00:22:53;;;;;;;1999.90;999.90;;;;;;;4.38;100.00;101672.53;10441977;28;20052;-62
2023/01/30 00:28:02;;;;;;;1999.90;999.90;;;;;;;4.44;100.00;101665.50;10459589;28;20110;-62
2023/01/30 00:33:04;;;;;;;1999.90;999.90;;;;;;;4.46;100.00;101658.53;10460107;28;20057;-62
2023/01/30 00:38:06;;;;;;;1999.90;999.90;;;;;;;4.54;100.00;101647.16;10456603;28;20073;-62
2023/01/30 00:48:33;;;;;;;1999.90;999.90;;;;;;;4.58;100.00;101647.09;10457731;28;20056;-62
2023/01/30 00:53:35;;;;;;;1999.90;999.90;;;;;;;4.72;100.00;101643.38;10456683;28;20106;-62
2023/01/30 00:58:38;;;;;;;1999.90;999.90;;;;;;;4.74;100.00;101632.09;10458094;28;20063;-62
2023/01/30 01:03:40;;;;;;;1999.90;999.90;;;;;;;4.84;100.00;101627.56;10458476;28;20476;-62
2023/01/30 01:08:42;;;;;;;1999.90;999.90;;;;;;;4.83;100.00;101613.72;10458262;28;20056;-62
2023/01/30 01:13:46;;;;;;;1999.90;999.90;;;;;;;5.01;100.00;101594.34;10456832;28;20128;-63
2023/01/30 01:18:49;;;;;;;1999.90;999.90;;;;;;;5.05;100.00;101617.63;10457201;28;20100;-62
2023/01/30 01:23:54;;;;;;;1999.90;999.90;;;;;;;5.11;100.00;101595.00;10456001;28;20057;-62
2023/01/30 01:28:57;;;;;;;1999.90;999.90;;;;;;;5.18;100.00;101612.16;10457804;28;20057;-62
2023/01/30 01:33:59;;;;;;;1999.90;999.90;;;;;;;5.26;100.00;101601.59;10456983;28;20057;-62
2023/01/30 01:39:02;;;;;;;1999.90;999.90;;;;;;;5.31;100.00;101584.19;10455872;28;20056;-63
2023/01/30 01:44:10;;;;;;;1999.90;999.90;;;;;;;5.32;100.00;101582.41;10457201;28;20048;-63
2023/01/30 01:49:25;;;;;;;1999.90;999.90;;;;;;;5.11;100.00;101582.03;10456564;28;20087;-62
2023/01/30 01:54:36;;;;;;;1999.90;999.90;;;;;;;5.18;100.00;101560.22;10454116;28;20491;-63
2023/01/30 01:59:44;;;;;;;1999.90;999.90;;;;;;;5.17;100.00;101557.66;10455934;28;20056;-62
2023/01/30 02:05:02;;;;;;;1999.90;999.90;;;;;;;5.24;100.00;101545.38;10455689;28;20048;-63
2023/01/30 02:10:07;;;;;;;1999.90;999.90;;;;;;;5.25;100.00;101542.75;10455683;28;20059;-63
2023/01/30 02:15:10;;;;;;;1999.90;999.90;;;;;;;5.20;100.00;101544.59;10454045;28;20187;-62
2023/01/30 02:20:45;;;;;;;1999.90;999.90;;;;;;;5.25;100.00;101536.72;10456194;28;20063;-62
2023/01/30 02:26:12;;;;;;;1999.90;999.90;;;;;;;5.35;100.00;101527.81;10410749;28;20053;-63
2023/01/30 02:31:32;;;;;;;1999.90;999.90;;;;;;;5.31;100.00;101511.47;10423605;28;20451;-63
2023/01/30 02:36:41;;;;;;;1999.90;999.90;;;;;;;5.27;100.00;101509.81;10406556;28;20123;-63
2023/01/30 02:41:55;;;;;;;1999.90;999.90;;;;;;;5.38;100.00;101515.63;10461476;28;20103;-63
2023/01/30 02:47:03;;;;;;;1999.90;999.90;;;;;;;5.43;100.00;101522.44;10463444;28;20484;-63
2023/01/30 02:52:06;;;;;;;1999.90;999.90;;;;;;;5.37;100.00;101511.28;10460890;28;20492;-64
2023/01/30 02:57:20;;;;;;;1999.90;999.90;;;;;;;5.40;100.00;101519.03;10462551;28;20061;-64
2023/01/30 03:03:06;;;;;;;1999.90;999.90;;;;;;;5.33;100.00;101509.69;10445863;28;20051;-63
2023/01/30 03:08:26;;;;;;;1999.90;999.90;;;;;;;5.39;100.00;101504.31;10463316;28;20088;-63
2023/01/30 03:13:53;;;;;;;1999.90;999.90;;;;;;;5.40;100.00;101497.41;10462073;28;20059;-64
2023/01/30 03:18:55;;;;;;;1999.90;999.90;;;;;;;5.54;100.00;101497.91;10461972;28;20057;-63
2023/01/30 03:23:58;;;;;;;1999.90;999.90;;;;;;;5.39;100.00;101496.53;10461198;28;20060;-63
2023/01/30 03:29:01;;;;;;;1999.90;999.90;;;;;;;5.40;100.00;101489.59;10462509;28;20064;-63
2023/01/30 03:34:03;;;;;;;1999.90;999.90;;;;;;;5.45;100.00;101477.38;10461977;28;20048;-63
2023/01/30 03:39:05;;;;;;;1999.90;999.90;;;;;;;5.53;100.00;101484.94;10442582;28;20068;-63
2023/01/30 03:44:08;;;;;;;1999.90;999.90;;;;;;;5.55;100.00;101476.22;10462667;28;20098;-63
2023/01/30 03:49:10;;;;;;;1999.90;999.90;;;;;;;5.54;100.00;101478.88;10444006;28;20056;-63
2023/01/30 03:54:12;;;;;;;1999.90;999.90;;;;;;;5.63;100.00;101475.19;10459197;28;20488;-63
2023/01/30 03:59:15;;;;;;;1999.90;999.90;;;;;;;5.64;100.00;101474.28;10460282;28;20060;-63
2023/01/30 04:04:17;;;;;;;1999.90;999.90;;;;;;;5.80;100.00;101472.13;10460995;28;20160;-63
2023/01/30 04:09:19;;;;;;;1999.90;999.90;;;;;;;5.97;100.00;101476.91;10459805;28;20053;-63
2023/01/30 04:14:22;;;;;;;1999.90;999.90;;;;;;;5.96;100.00;101468.25;10459458;28;20056;-63
2023/01/30 04:19:24;;;;;;;1999.90;999.90;;;;;;;6.03;100.00;101477.59;10459624;28;20143;-63
2023/01/30 04:24:26;;;;;;;1999.90;999.90;;;;;;;5.97;100.00;101472.59;10458424;28;20158;-63
2023/01/30 04:29:29;;;;;;;1999.90;999.90;;;;;;;6.08;100.00;101486.13;10460167;28;20052;-63
2023/01/30 04:34:31;;;;;;;1999.90;999.90;;;;;;;6.10;100.00;101479.16;10442149;28;20484;-63
2023/01/30 04:39:33;;;;;;;1999.90;999.90;;;;;;;6.11;100.00;101482.59;10458008;28;20059;-63
2023/01/30 04:44:35;;;;;;;1999.90;999.90;;;;;;;6.18;100.00;101488.47;10458213;28;20049;-63
2023/01/30 04:49:38;;;;;;;1999.90;999.90;;;;;;;6.19;100.00;101472.00;10458744;28;20060;-63
2023/01/30 04:54:40;;;;;;;1999.90;999.90;;;;;;;6.09;100.00;101471.38;10458060;28;20076;-63
2023/01/30 04:59:42;;;;;;;1999.90;999.90;;;;;;;6.10;100.00;101452.28;10457589;28;20176;-63
2023/01/30 05:04:47;;;;;;;1999.90;999.90;;;;;;;6.22;100.00;101472.75;10458133;28;20510;-63
2023/01/30 05:09:50;;;;;;;1999.90;999.90;;;;;;;6.25;100.00;101464.00;10457941;28;20538;-63
2023/01/30 05:14:52;;;;;;;1999.90;999.90;;;;;;;6.21;100.00;101458.03;10456414;28;20053;-63
2023/01/30 05:19:54;;;;;;;1999.90;999.90;;;;;;;6.26;100.00;101471.75;10456388;28;20056;-63
2023/01/30 05:24:57;;;;;;;1999.90;999.90;;;;;;;6.20;100.00;101464.13;10457288;28;20052;-63
2023/01/30 05:29:59;;;;;;;1999.90;999.90;;;;;;;6.30;100.00;101465.59;10457222;28;20061;-63
2023/01/30 05:35:01;;;;;;;1999.90;999.90;;;;;;;6.31;100.00;101464.66;10455934;28;20056;-63
2023/01/30 05:40:05;;;;;;;1999.90;999.90;;;;;;;6.36;100.00;101458.50;10456590;28;20114;-63
2023/01/30 05:45:08;;;;;;;1999.90;999.90;;;;;;;6.23;100.00;101460.59;10454729;28;20056;-63
2023/01/30 05:50:11;;;;;;;1999.90;999.90;;;;;;;6.30;100.00;101470.78;10457276;28;20099;-63
2023/01/30 05:55:13;;;;;;;1999.90;999.90;;;;;;;6.30;100.00;101478.59;10455130;28;20081;-63
2023/01/30 06:00:16;;;;;;;1999.90;999.90;;;;;;;6.35;100.00;101475.81;10455614;28;20057;-63
2023/01/30 06:05:18;;;;;;;1999.90;999.90;;;;;;;6.41;100.00;101461.81;10456272;28;20049;-63
2023/01/30 06:10:21;;;;;;;1999.90;999.90;;;;;;;6.39;100.00;101445.38;10455627;28;20049;-63
2023/01/30 06:15:23;;;;;;;1999.90;999.90;;;;;;;6.39;100.00;101454.06;10456101;28;20056;-64
2023/01/30 06:20:25;;;;;;;1999.90;999.90;;;;;;;6.30;100.00;101457.78;10455649;28;20064;-63
2023/01/30 06:25:28;;;;;;;1999.90;999.90;;;;;;;6.23;100.00;101474.44;10454748;28;20060;-63
2023/01/30 06:30:30;;;;;;;1999.90;999.90;;;;;;;6.20;100.00;101477.13;10455312;28;20106;-63
2023/01/30 06:35:33;;;;;;;1999.90;999.90;;;;;;;6.16;100.00;101487.66;10456214;28;20045;-64
2023/01/30 06:40:35;;;;;;;1999.90;999.90;;;;;;;6.17;100.00;101484.16;10455215;28;20131;-63
2023/01/30 06:45:38;;;;;;;1999.90;999.90;;;;;;;6.11;100.00;101485.19;10456176;28;20102;-63
2023/01/30 06:50:40;;;;;;;1999.90;999.90;;;;;;;6.07;100.00;101475.75;10454372;28;20058;-63
2023/01/30 06:55:42;;;;;;;1999.90;999.90;;;;;;;5.89;100.00;101474.50;10453129;28;20455;-63
2023/01/30 07:00:45;;;;;;;1999.90;999.90;;;;;;;5.79;100.00;101486.03;10454780;28;20130;-63
2023/01/30 07:05:48;;;;;;;1999.90;999.90;;;;;;;5.68;100.00;101468.13;10455988;28;20053;-64
2023/01/30 07:10:50;;;;;;;1999.90;999.90;;;;;;;5.65;100.00;101495.03;10460724;28;20052;-64
2023/01/30 07:15:52;;;;;;;1999.90;999.90;;;;;;;5.52;100.00;101491.03;10462852;28;20053;-64
2023/01/30 07:20:55;;;;;;;1999.90;999.90;;;;;;;5.56;100.00;101501.34;10461320;28;20455;-63
2023/01/30 07:25:57;;;;;;;1999.90;999.90;;;;;;;5.60;100.00;101509.91;10461611;28;20099;-63
2023/01/30 07:31:00;;;;;;;1999.90;999.90;;;;;;;5.51;100.00;101520.50;10460824;28;20492;-63
2023/01/30 07:36:03;;;;;;;1999.90;999.90;;;;;;;5.49;100.00;101532.69;10459969;28;20503;-63
2023/01/30 07:41:05;;;;;;;1999.90;999.90;;;;;;;5.39;100.00;101530.28;10461220;28;20053;-64
2023/01/30 07:46:07;;;;;;;1999.90;999.90;;;;;;;5.37;100.00;101526.88;10461361;28;20523;-63
2023/01/30 07:51:09;;;;;;;1999.90;999.90;;;;;;;5.37;100.00;101536.41;10459364;28;20103;-63
2023/01/30 07:56:17;;;;;;;1999.90;999.90;;;;;;;5.45;100.00;101544.03;10460355;28;20103;-63
2023/01/30 08:01:19;;;;;;;1999.90;999.90;;;;;;;5.30;100.00;101542.66;10460176;28;20052;-63
2023/01/30 08:06:21;;;;;;;1999.90;999.90;;;;;;;5.34;100.00;101519.16;10460530;28;20056;-63
2023/01/30 08:11:24;;;;;;;1999.90;999.90;;;;;;;5.47;100.00;101524.91;10458707;28;20546;-63
2023/01/30 08:16:26;;;;;;;1999.90;999.90;;;;;;;5.71;100.00;101517.41;10460081;28;20068;-64
2023/01/30 08:21:28;;;;;;;1999.90;999.90;;;;;;;5.79;100.00;101538.00;10456715;28;20049;-63
2023/01/30 08:26:31;;;;;;;1999.90;999.90;;;;;;;6.14;100.00;101535.34;10459232;28;20048;-63
2023/01/30 08:31:33;;;;;;;1999.90;999.90;;;;;;;6.90;96.41;101547.97;10458907;28;20606;-63
2023/01/30 08:36:35;;;;;;;1999.90;999.90;;;;;;;7.28;92.37;101561.56;10459407;28;20519;-64
2023/01/30 08:41:41;;;;;;;1999.90;999.90;;;;;;;7.66;88.75;101575.97;10416603;28;20050;-64
2023/01/30 08:46:44;;;;;;;1999.90;999.90;;;;;;;7.35;88.45;101571.75;10417086;28;20053;-64
2023/01/30 08:51:46;;;;;;;1999.90;999.90;;;;;;;8.27;85.87;101562.63;10452659;28;20148;-64
2023/01/30 08:56:48;;;;;;;1999.90;999.90;;;;;;;8.26;82.96;101565.28;10459146;28;20056;-64
2023/01/30 09:01:51;;;;;;;1999.90;999.90;;;;;;;8.24;81.77;101560.09;10457892;28;20045;-64
2023/01/30 09:06:56;;;;;;;1999.90;999.90;;;;;;;8.38;82.58;101564.81;10458679;28;20068;-65
2023/01/30 09:11:58;;;;;;;1999.90;999.90;;;;;;;8.67;78.36;101576.00;10457116;28;20091;-64
2023/01/30 09:17:01;;;;;;;1999.90;999.90;;;;;;;9.67;77.94;101588.66;10478385;28;20086;-64
2023/01/30 09:22:03;;;;;;;1999.90;999.90;;;;;;;8.55;81.08;101599.00;10466069;28;20102;-64
2023/01/30 09:27:06;;;;;;;1999.90;999.90;;;;;;;8.31;84.33;101600.72;10446208;28;20061;-64
2023/01/30 09:32:08;;;;;;;1999.90;999.90;;;;;;;6.97;86.04;101619.78;10456994;28;20554;-64
2023/01/30 09:37:10;;;;;;;1999.90;999.90;;;;;;;6.83;89.25;101602.81;10457107;28;20496;-64
2023/01/30 09:42:53;;;;;;;1999.90;999.90;;;;;;;6.82;89.58;101606.31;10455878;28;20388;-64
2023/01/30 09:48:15;;;;;;;1999.90;999.90;;;;;;;6.65;89.50;101600.75;10456877;28;20459;-64
2023/01/30 09:53:38;;;;;;;1999.90;999.90;;;;;;;6.67;89.80;101602.41;10453435;28;20456;-64
2023/01/30 09:59:01;;;;;;;1999.90;999.90;;;;;;;6.66;90.99;101618.06;10455742;28;20048;-64
2023/01/30 10:04:12;;;;;;;1999.90;999.90;;;;;;;6.76;91.82;101644.66;10455227;28;20510;-64
2023/01/30 10:09:27;;;;;;;1999.90;999.90;;;;;;;7.06;90.11;101646.41;10455205;28;20076;-64
2023/01/30 10:14:38;;;;;;;1999.90;999.90;;;;;;;8.49;86.52;101630.56;10455016;28;20304;-64
2023/01/30 10:19:46;;;;;;;1999.90;999.90;;;;;;;8.26;80.22;101633.94;10455720;28;20053;-64
2023/01/30 10:25:14;;;;;;;1999.90;999.90;;;;;;;7.95;84.63;101642.81;10455015;28;20053;-64
2023/01/30 10:30:16;;;;;;;1999.90;999.90;;;;;;;9.10;80.90;101631.84;10455400;28;20056;-63
2023/01/30 10:35:21;;;;;;;1999.90;999.90;;;;;;;7.73;83.84;101624.41;10455496;28;20140;-63
2023/01/30 10:40:42;;;;;;;1999.90;999.90;;;;;;;7.67;82.48;101642.00;10454547;28;20053;-64
2023/01/30 10:46:09;;;;;;;1999.90;999.90;;;;;;;7.44;85.52;101654.81;10463287;28;20060;-64
2023/01/30 10:51:50;;;;;;;1999.90;999.90;;;;;;;7.34;85.66;101653.41;10463529;28;20057;-64
2023/01/30 10:56:58;;;;;;;1999.90;999.90;;;;;;;7.23;86.46;101652.88;10462058;28;20049;-64
2023/01/30 11:02:42;;;;;;;1999.90;999.90;;;;;;;7.18;86.08;101652.19;10461113;28;20403;-64
2023/01/30 11:07:46;;;;;;;1999.90;999.90;;;;;;;7.39;86.96;101651.50;10447091;28;20067;-64
2023/01/30 11:12:53;;;;;;;1999.90;999.90;;;;;;;7.37;87.20;101652.47;10462350;28;20060;-64
2023/01/30 11:18:04;;;;;;;1999.90;999.90;;;;;;;7.37;86.49;101660.28;10459595;28;20061;-64
2023/01/30 11:23:34;;;;;;;1999.90;999.90;;;;;;;7.59;85.97;101656.09;10462494;28;20053;-64
2023/01/30 11:28:42;;;;;;;1999.90;999.90;;;;;;;7.63;85.39;101654.25;10475867;23;20557;-69
2023/01/30 11:33:45;;;;;;;1999.90;999.90;;;;;;;7.74;85.08;101654.78;10462042;28;20307;-69
2023/01/30 11:39:11;;;;;;;1999.90;999.90;;;;;;;8.97;81.31;101654.13;10459346;28;20062;-68
2023/01/30 11:44:14;;;;;;;1999.90;999.90;;;;;;;8.28;80.51;101658.22;10461378;28;20541;-70
2023/01/30 11:49:20;;;;;;;1999.90;999.90;;;;;;;7.95;82.06;101649.75;10460146;28;20083;-69
2023/01/30 11:54:44;;;;;;;1999.90;999.90;;;;;;;8.17;80.33;101666.41;10454919;28;20083;-69
2023/01/30 11:59:58;;;;;;;1999.90;999.90;;;;;;;7.95;81.64;101673.22;10460428;28;20091;-68
2023/01/30 12:05:15;;;;;;;1999.90;999.90;;;;;;;8.11;81.38;101657.94;10460276;28;20484;-69
2023/01/30 12:10:26;;;;;;;1999.90;999.90;;;;;;;7.97;79.55;101679.28;10443266;28;20056;-68
2023/01/30 12:15:30;;;;;;;1999.90;999.90;;;;;;;7.98;79.91;101663.59;10441347;28;20515;-68
2023/01/30 12:20:55;;;;;;;1999.90;999.90;;;;;;;8.03;79.97;101673.84;10458207;28;20491;-68
2023/01/30 12:26:34;;;;;;;1999.90;999.90;;;;;;;8.49;79.27;101679.28;10458625;28;20075;-68
2023/01/30 12:31:46;;;;;;;1999.90;999.90;;;;;;;8.08;77.95;101681.53;10405908;28;20064;-68
2023/01/30 12:37:16;;;;;;;1999.90;999.90;;;;;;;8.12;79.21;101691.81;10456819;28;20053;-68
2023/01/30 12:42:46;;;;;;;1999.90;999.90;;;;;;;8.13;80.32;101703.09;10419033;28;20065;-68
2023/01/30 12:48:19;;;;;;;1999.90;999.90;;;;;;;8.04;79.41;101698.19;10418033;28;20419;-68
2023/01/30 12:53:47;;;;;;;1999.90;999.90;;;;;;;7.98;79.71;101700.09;10419736;28;20064;-69
2023/01/30 12:59:10;;;;;;;1999.90;999.90;;;;;;;7.82;77.71;101697.09;10446805;28;20049;-69
2023/01/30 13:04:28;;;;;;;1999.90;999.90;;;;;;;7.81;78.07;101708.41;10448308;28;20384;-69
2023/01/30 13:09:57;;;;;;;1999.90;999.90;;;;;;;7.89;78.34;101723.84;10458771;28;20057;-69
2023/01/30 13:15:24;;;;;;;1999.90;999.90;;;;;;;7.61;79.13;101727.28;10450278;28;20045;-69
2023/01/30 13:21:02;;;;;;;1999.90;999.90;;;;;;;7.47;80.44;101745.09;10419033;28;20060;-69
2023/01/30 13:26:18;;;;;;;1999.90;999.90;;;;;;;7.53;80.71;101741.44;10408650;28;20480;-69
2023/01/30 13:31:23;;;;;;;1999.90;999.90;;;;;;;7.47;79.40;101744.25;10451641;28;20700;-69
2023/01/30 13:36:45;;;;;;;1999.90;999.90;;;;;;;7.52;79.89;101750.16;10454872;28;20079;-69
2023/01/30 13:41:51;;;;;;;1999.90;999.90;;;;;;;7.54;79.53;101764.84;10455930;28;20079;-69
2023/01/30 13:46:55;;;;;;;1999.90;999.90;;;;;;;7.39;79.37;101768.75;10457492;28;20057;-69
2023/01/30 13:52:20;;;;;;;1999.90;999.90;;;;;;;7.38;80.01;101768.78;10453972;28;20128;-69
2023/01/30 13:57:42;;;;;;;1999.90;999.90;;;;;;;7.34;80.23;101794.06;10454361;28;20049;-69
2023/01/30 14:03:03;;;;;;;1999.90;999.90;;;;;;;7.63;81.24;101816.72;10457067;28;20060;-69
2023/01/30 14:08:11;;;;;;;1999.90;999.90;;;;;;;7.44;81.46;101815.53;10456816;28;20071;-69
2023/01/30 14:13:14;;;;;;;1999.90;999.90;;;;;;;7.22;82.75;101821.31;10454124;28;20506;-69
2023/01/30 14:18:44;;;;;;;1999.90;999.90;;;;;;;7.37;82.00;101830.47;10459008;28;20508;-69
2023/01/30 14:24:16;;;;;;;1999.90;999.90;;;;;;;7.38;82.06;101844.34;10444726;28;20053;-70
2023/01/30 14:29:37;;;;;;;1999.90;999.90;;;;;;;7.21;82.56;101848.28;10472918;28;20057;-70
2023/01/30 14:35:09;;;;;;;1999.90;999.90;;;;;;;7.39;80.69;101839.09;10446996;28;20049;-70
2023/01/30 14:40:20;;;;;;;1999.90;999.90;;;;;;;7.31;79.83;101853.22;10462077;28;20056;-70
2023/01/30 14:45:42;;;;;;;1999.90;999.90;;;;;;;7.29;81.28;101857.63;10464311;28;20073;-70
2023/01/30 14:50:44;;;;;;;1999.90;999.90;;;;;;;7.43;80.97;101861.59;10462500;28;20515;-70
2023/01/30 14:55:59;;;;;;;1999.90;999.90;;;;;;;7.32;80.25;101884.44;10462807;28;20299;-70
2023/01/30 15:01:01;;;;;;;1999.90;999.90;;;;;;;7.41;80.74;101892.03;10460495;28;20067;-70
2023/01/30 15:06:05;;;;;;;1999.90;999.90;;;;;;;7.32;80.87;101905.28;10405442;28;20049;-69
2023/01/30 15:11:19;;;;;;;1999.90;999.90;;;;;;;7.21;81.79;101913.41;10451405;28;20446;-70
2023/01/30 15:16:27;;;;;;;1999.90;999.90;;;;;;;7.23;82.24;101915.97;10463249;28;20103;-70
2023/01/30 15:21:57;;;;;;;1999.90;999.90;;;;;;;7.20;82.30;101916.03;10460407;28;20076;-70
2023/01/30 15:27:21;;;;;;;1999.90;999.90;;;;;;;7.02;82.12;101941.63;10402891;28;20080;-70
2023/01/30 15:32:27;;;;;;;1999.90;999.90;;;;;;;6.84;87.30;101952.47;10421177;28;20100;-70
2023/01/30 15:37:33;;;;;;;1999.90;999.90;;;;;;;6.79;90.06;101962.16;10419288;28;20417;-70
2023/01/30 15:42:36;;;;;;;1999.90;999.90;;;;;;;6.81;88.86;101963.84;10395836;28;20065;-69
2023/01/30 15:47:49;;;;;;;1999.90;999.90;;;;;;;6.81;89.41;101979.47;10402486;28;20061;-70
2023/01/30 15:52:52;;;;;;;1999.90;999.90;;;;;;;6.97;88.98;101990.34;10420034;28;20448;-70
2023/01/30 15:58:00;;;;;;;1999.90;999.90;;;;;;;6.87;89.82;101994.91;10419126;28;20103;-70
2023/01/30 16:03:04;;;;;;;1999.90;999.90;;;;;;;6.85;90.00;102003.66;10417913;28;20484;-69
2023/01/30 16:08:19;;;;;;;1999.90;999.90;;;;;;;6.86;90.37;102010.59;10440774;28;20123;-71
2023/01/30 16:13:22;;;;;;;1999.90;999.90;;;;;;;6.79;89.39;102014.19;10442176;28;20056;-70
2023/01/30 16:18:43;;;;;;;1999.90;999.90;;;;;;;6.81;88.28;102015.91;10466900;28;20053;-70
2023/01/30 16:23:52;;;;;;;;;;;;;;;6.74;89.44;102027.34;10461524;28;20060;-70
2023/01/30 16:29:01;;;;;;;1999.90;999.90;;;;;;;6.73;87.87;102036.03;10459808;28;19921;-70
2023/01/30 16:34:04;;;;;;;1999.90;999.90;;;;;;;6.66;90.03;102050.06;10454419;28;20059;-70
2023/01/30 16:39:31;;;;;;;1999.90;999.90;;;;;;;6.58;89.52;102055.41;10457691;28;20057;-70
2023/01/30 16:44:33;;;;;;;1999.90;999.90;;;;;;;6.40;89.38;102069.66;10421505;28;20400;-70
2023/01/30 16:49:35;;;;;;;1999.90;999.90;;;;;;;6.37;89.82;102079.25;10439732;28;20049;-70
2023/01/30 16:54:39;;;;;;;1999.90;999.90;;;;;;;6.40;90.07;102093.06;10458474;28;20045;-70
2023/01/30 16:59:42;;;;;;;1999.90;999.90;;;;;;;6.37;89.94;102100.94;10437652;28;20053;-70
2023/01/30 17:04:44;;;;;;;1999.90;999.90;;;;;;;6.10;91.67;102126.56;10440689;28;20451;-70
2023/01/30 17:09:47;;;;;;;1999.90;999.90;;;;;;;5.79;97.39;102135.72;10441238;28;20068;-70
2023/01/30 17:14:49;;;;;;;1999.90;999.90;;;;;;;5.74;98.57;102146.19;10437171;28;20049;-70
2023/01/30 17:19:52;;;;;;;1999.90;999.90;;;;;;;5.54;98.91;102151.69;10440825;28;20056;-70
2023/01/30 17:25:01;;;;;;;1999.90;999.90;;;;;;;5.71;98.36;102161.81;10455328;28;20053;-71
2023/01/30 17:30:13;;;;;;;1999.90;999.90;;;;;;;5.47;99.42;102183.84;10453070;28;20053;-73
2023/01/30 17:35:16;;;;;;;1999.90;999.90;;;;;;;5.31;100.00;102190.97;10462088;28;20135;-70
2023/01/30 17:40:23;;;;;;;1999.90;999.90;;;;;;;5.40;100.00;102188.25;10448528;28;20057;-70
2023/01/30 17:45:26;;;;;;;1999.90;999.90;;;;;;;5.34;100.00;102188.31;10433872;28;20048;-70
2023/01/30 17:50:28;;;;;;;1999.90;999.90;;;;;;;5.35;100.00;102185.72;10448746;28;20056;-71
2023/01/30 17:55:32;;;;;;;1999.90;999.90;;;;;;;5.37;100.00;102196.94;10451612;28;20052;-70
2023/01/30 18:00:34;;;;;;;1999.90;999.90;;;;;;;5.34;100.00;102199.56;10457424;28;20049;-70
2023/01/30 18:05:37;;;;;;;1999.90;999.90;;;;;;;5.25;100.00;102199.69;10471676;28;20484;-70
2023/01/30 18:10:39;;;;;;;1999.90;999.90;;;;;;;5.20;100.00;102211.88;10452664;28;20530;-70
2023/01/30 18:15:42;;;;;;;1999.90;999.90;;;;;;;5.25;99.62;102212.69;10452820;28;20045;-69
2023/01/30 18:20:44;;;;;;;1999.90;999.90;;;;;;;5.28;100.00;102212.66;10432003;28;20123;-70
2023/01/30 18:25:48;;;;;;;1999.90;999.90;;;;;;;5.15;99.94;102227.50;10449592;28;20053;-70
2023/01/30 18:30:51;;;;;;;1999.90;999.90;;;;;;;5.11;100.00;102223.25;10457384;28;20389;-69
2023/01/30 18:35:53;;;;;;;1999.90;999.90;;;;;;;4.94;100.00;102218.25;10453579;28;20511;-70
2023/01/30 18:40:56;;;;;;;1999.90;999.90;;;;;;;4.97;100.00;102225.97;10455047;28;20057;-70
2023/01/30 18:46:10;;;;;;;1999.90;999.90;;;;;;;4.99;100.00;102241.53;10453692;28;20095;-70
2023/01/30 18:51:17;;;;;;;1999.90;999.90;;;;;;;4.81;100.00;102247.81;10461421;28;20088;-69
2023/01/30 18:56:30;;;;;;;1999.90;999.90;;;;;;;4.79;100.00;102245.22;10461238;28;20478;-69
2023/01/30 19:01:36;;;;;;;1999.90;999.90;;;;;;;4.72;100.00;102248.72;10436861;28;20403;-69
2023/01/30 19:06:41;;;;;;;1999.90;999.90;;;;;;;4.71;100.00;102254.81;10445242;28;20542;-70
2023/01/30 19:17:04;;;;;;;1999.90;999.90;;;;;;;4.69;100.00;102266.06;10462549;28;20056;-70
2023/01/30 19:22:06;;;;;;;1999.90;999.90;;;;;;;4.54;100.00;102259.28;10441149;28;20060;-70
2023/01/30 19:27:12;;;;;;;1999.90;999.90;;;;;;;4.49;100.00;102268.84;10461440;28;20064;-70
2023/01/30 19:32:15;;;;;;;1999.90;999.90;;;;;;;4.39;100.00;102268.91;10421451;28;20057;-70
2023/01/30 19:37:17;;;;;;;1999.90;999.90;;;;;;;4.49;100.00;102271.44;10421034;28;20052;-70
2023/01/30 19:42:19;;;;;;;1999.90;999.90;;;;;;;4.38;100.00;102277.56;10457031;28;20455;-70
2023/01/30 19:47:22;;;;;;;1999.90;999.90;;;;;;;4.35;100.00;102287.94;10441757;28;20497;-70
2023/01/30 19:52:24;;;;;;;1999.90;999.90;;;;;;;4.37;100.00;102296.59;10443608;28;20049;-70
2023/01/30 19:57:27;;;;;;;1999.90;999.90;;;;;;;4.43;100.00;102296.53;10443029;28;20052;-71
2023/01/30 20:02:29;;;;;;;1999.90;999.90;;;;;;;4.28;100.00;102299.25;10459178;28;20057;-70
2023/01/30 20:07:33;;;;;;;1999.90;999.90;;;;;;;4.35;100.00;102305.25;10459241;28;20048;-70
2023/01/30 20:12:38;;;;;;;1999.90;999.90;;;;;;;4.33;100.00;102307.00;10459840;28;20056;-70
2023/01/30 20:17:40;;;;;;;1999.90;999.90;;;;;;;4.26;100.00;102290.63;10440498;28;20048;-70
2023/01/30 20:22:43;;;;;;;1999.90;999.90;;;;;;;4.25;100.00;102307.94;10459946;28;20083;-70
2023/01/30 20:27:45;;;;;;;1999.90;999.90;;;;;;;4.25;100.00;102312.22;10459708;28;20056;-70
2023/01/30 20:32:48;;;;;;;1999.90;999.90;;;;;;;4.36;100.00;102313.03;10464233;28;20052;-70
2023/01/30 20:37:50;;;;;;;1999.90;999.90;;;;;;;4.25;100.00;102312.22;10441087;28;20388;-71
2023/01/30 20:42:53;;;;;;;1999.90;999.90;;;;;;;4.20;100.00;102321.78;10459942;28;20137;-70
2023/01/30 20:47:56;;;;;;;1999.90;999.90;;;;;;;4.16;100.00;102315.75;10458869;28;20049;-71
2023/01/30 20:52:58;;;;;;;1999.90;999.90;;;;;;;4.19;100.00;102323.50;10458024;28;20049;-70
2023/01/30 20:58:00;;;;;;;1999.90;999.90;;;;;;;4.20;100.00;102321.78;10438832;28;20056;-70
2023/01/30 21:03:03;;;;;;;1999.90;999.90;;;;;;;4.18;100.00;102336.47;10458381;28;20491;-70
2023/01/30 21:08:05;;;;;;;1999.90;999.90;;;;;;;4.08;100.00;102331.38;10450311;28;20057;-70
2023/01/30 21:13:08;;;;;;;1999.90;999.90;;;;;;;4.09;100.00;102347.78;10454843;28;20496;-71
2023/01/30 21:18:10;;;;;;;1999.90;999.90;;;;;;;4.14;100.00;102345.16;10455469;28;20393;-70
2023/01/30 21:23:12;;;;;;;1999.90;999.90;;;;;;;4.12;100.00;102341.69;10442880;28;20465;-70
2023/01/30 21:28:15;;;;;;;1999.90;999.90;;;;;;;4.07;100.00;102337.41;10467747;28;20057;-70
2023/01/30 21:33:17;;;;;;;1999.90;999.90;;;;;;;4.03;100.00;102346.06;10456858;28;20053;-71
2023/01/30 21:43:41;;;;;;;1999.90;999.90;;;;;;;3.92;100.00;102363.41;10474205;28;20143;-70
2023/01/30 21:48:44;;;;;;;1999.90;999.90;;;;;;;3.95;100.00;102367.69;10439908;28;20056;-70
2023/01/30 21:53:46;;;;;;;1999.90;999.90;;;;;;;3.94;100.00;102364.25;10452012;28;20488;-71
2023/01/30 21:58:49;;;;;;;1999.90;999.90;;;;;;;3.93;100.00;102369.44;10451070;28;20212;-71
2023/01/30 22:03:52;;;;;;;1999.90;999.90;;;;;;;3.88;100.00;102359.09;10448316;28;20098;-70
2023/01/30 22:08:56;;;;;;;1999.90;999.90;;;;;;;3.83;100.00;102351.38;10453550;28;20049;-70
2023/01/30 22:13:58;;;;;;;1999.90;999.90;;;;;;;3.78;100.00;102375.53;10452825;28;20052;-70
2023/01/30 22:19:02;;;;;;;1999.90;999.90;;;;;;;3.69;100.00;102363.50;10452966;28;20053;-70
2023/01/30 22:24:07;;;;;;;1999.90;999.90;;;;;;;3.77;100.00;102356.56;10445998;28;20064;-70
2023/01/30 22:29:09;;;;;;;1999.90;999.90;;;;;;;3.76;100.00;102356.56;10455290;28;20068;-70
2023/01/30 22:34:12;;;;;;;1999.90;999.90;;;;;;;3.85;100.00;102346.16;10452000;28;20485;-70
2023/01/30 22:39:14;;;;;;;1999.90;999.90;;;;;;;3.79;100.00;102344.44;10458342;28;20057;-70